Nearby METAR Reports

 

LEAL - Alicante/El Alte, Spain
Distance from station: SO 52km
Actualización: 15/12/2017 22:00
Muy nuboso
Muy nuboso
 Viento del calm
Viento: Calma
Temperatura: 14°C
Rocío: 11°C
Humedad: 82%
Barómetro: 1012 hPa
Clouds: Muy nuboso
Visibility: 10 km
Cloud details: Muy nuboso 1981 m
2017/12/15 21:00 LEAL 152100Z 00000KT 9999 BKN065 14/11 Q1012 NOSIG
LEVC - Valencia (civ/Mi, Spain
Distance from station: NNO 107km
Actualización: 15/12/2017 22:00
Few Clouds
Few Clouds
 Viento del NNO
Viento: NNO 17 km/h
Temperatura: 12°C
Rocío: 0°C
Humedad: 44%
Barómetro: 1012 hPa
Clouds: Few Clouds
Visibility: 10 km
Cloud details: Few Clouds 1219 m
2017/12/15 21:00 LEVC 152100Z 33009KT 9999 FEW040 12/00 Q1012 NOSIG
 
LELC - San Javier(Mil/C, Spain
Distance from station: SO 109km
Actualización: 15/12/2017 22:00
Lluvia débil, Muy nuboso
Lluvia débil, Muy nuboso
 Viento del ONO
Viento: ONO 7 km/h
Temperatura: 15°C
Rocío: 9°C
Humedad: 68%
Barómetro: 1012 hPa
Resumen: Lluvia débil
Clouds: Muy nuboso
Visibility: 10 km
Cloud details: Muy nuboso 1524 m
2017/12/15 21:00 LELC 152100Z 29004KT 260V010 9999 -RA BKN050 15/09 Q1012 NOSIG
LERI - Alcantarilla(Sp-, Spain
Distance from station: SO 120km
Actualización: 15/12/2017 19:00
NOT Current
Despejado
Despejado
 Viento del varies
Viento: varies 4 km/h
Temperatura: 15°C
Rocío: 7°C
Humedad: 59%
Barómetro: 1009 hPa
Resumen: Despejado
Visibility: greater than 10 km
2017/12/15 18:00 LERI 151800Z VRB02KT CAVOK 15/07 Q1009 NOSIG
 
LEIB - Ibiza/Es Codola, Spain
Distance from station: ENE 131km
Actualización: 15/12/2017 22:00
Few Clouds
Few Clouds
 Viento del NO
Viento: NO 11 km/h
Temperatura: 12°C
Rocío: 7°C
Humedad: 72%
Barómetro: 1011 hPa
Clouds: Few Clouds
Visibility: 10 km
Cloud details: Few Clouds 1463 m
2017/12/15 21:00 LEIB 152100Z 31006KT 9999 FEW048 12/07 Q1011 NOSIG
LEAB - Albacete (civ/Mi, Spain
Distance from station: ONO 157km
Actualización: 15/12/2017 22:00
Despejado
Despejado
 Viento del NNO
Viento: NNO 17 km/h
Temperatura: 8°C
Wind Chill: 5°C
Rocío: 4°C
Humedad: 76%
Barómetro: 1013 hPa
Resumen: Despejado
Visibility: greater than 10 km
2017/12/15 21:00 LEAB 152100Z 33009KT CAVOK 08/04 Q1013 NOSIG